Time;durP1;ratioP1;P1;durP2;ratioP2;P2;SDS_P1;SDS_P2;PMS_P1;PMS_P2;Temp;Humidity;BMP_temperature;BMP_pressure;BME280_temperature;BME280_humidity;BME280_pressure;Samples;Min_cycle;Max_cycle;Signal;HPM_P1;HPM_P2
2022/06/28 00:03:46;;;;;;;8.68;4.95;;;;;;;;;;8494057;27;20062;-84
2022/06/28 00:07:50;;;;;;;8.38;4.82;;;;;;;;;;8473432;27;20044;-84
2022/06/28 00:11:54;;;;;;;7.07;4.65;;;;;;;;;;8470015;27;20460;-90
2022/06/28 00:16:08;;;;;;;6.93;4.72;;;;;;;;;;8469935;27;20047;-91
2022/06/28 00:20:12;;;;;;;6.57;4.68;;;;;;;;;;8469848;27;20067;-91
2022/06/28 00:24:15;;;;;;;6.88;4.97;;;;;;;;;;8470218;27;20040;-90
2022/06/28 00:28:17;;;;;;;5.90;4.70;;;;;;;;;;8469469;27;20043;-87
2022/06/28 00:32:22;;;;;;;11.05;4.82;;;;;;;;;;8469418;27;20056;-84
2022/06/28 00:36:24;;;;;;;8.20;5.00;;;;;;;;;;8469366;27;20494;-84
2022/06/28 00:40:27;;;;;;;7.38;5.18;;;;;;;;;;8487918;27;20055;-84
2022/06/28 00:44:31;;;;;;;6.88;5.18;;;;;;;;;;8468877;27;20051;-84
2022/06/28 00:48:36;;;;;;;7.43;4.80;;;;;;;;;;8499740;27;20043;-87
2022/06/28 00:52:59;;;;;;;6.63;5.20;;;;;;;;;;8490463;27;20037;-85
2022/06/28 00:57:02;;;;;;;6.35;5.13;;;;;;;;;;8488040;27;20065;-84
2022/06/28 01:01:04;;;;;;;8.32;5.10;;;;;;;;;;8487338;27;20040;-85
2022/06/28 01:05:09;;;;;;;8.85;5.40;;;;;;;;;;8490671;27;20043;-85
2022/06/28 01:09:12;;;;;;;6.80;5.20;;;;;;;;;;8488496;27;20051;-85
2022/06/28 01:13:15;;;;;;;7.57;5.13;;;;;;;;;;8492887;27;20107;-91
2022/06/28 01:17:18;;;;;;;7.35;5.30;;;;;;;;;;8484474;27;20039;-85
2022/06/28 01:21:27;;;;;;;7.38;5.40;;;;;;;;;;8490921;27;20047;-90
2022/06/28 01:25:31;;;;;;;7.75;5.38;;;;;;;;;;8488098;27;20096;-86
2022/06/28 01:29:34;;;;;;;7.38;5.13;;;;;;;;;;8488246;27;20043;-91
2022/06/28 01:33:39;;;;;;;6.95;5.32;;;;;;;;;;8492883;27;20043;-83
2022/06/28 01:37:42;;;;;;;7.13;5.30;;;;;;;;;;8474318;27;20039;-90
2022/06/28 01:41:46;;;;;;;9.70;5.45;;;;;;;;;;8485051;27;20051;-90
2022/06/28 01:45:49;;;;;;;7.47;5.47;;;;;;;;;;8487572;27;20044;-92
2022/06/28 01:49:52;;;;;;;8.35;5.32;;;;;;;;;;8491009;27;20039;-90
2022/06/28 01:53:55;;;;;;;9.40;5.40;;;;;;;;;;8498465;27;20051;-85
2022/06/28 01:57:59;;;;;;;8.30;5.43;;;;;;;;;;8496609;27;20046;-85
2022/06/28 02:02:02;;;;;;;9.70;5.82;;;;;;;;;;8486066;27;20035;-90
2022/06/28 02:06:04;;;;;;;11.13;5.30;;;;;;;;;;8487649;27;20047;-85
2022/06/28 02:10:07;;;;;;;7.03;5.43;;;;;;;;;;8495373;27;20045;-84
2022/06/28 02:14:11;;;;;;;8.75;5.20;;;;;;;;;;8490380;27;20051;-85
2022/06/28 02:18:14;;;;;;;24.20;11.55;;;;;;;;;;8485305;27;20193;-91
2022/06/28 02:22:16;;;;;;;88.20;42.83;;;;;;;;;;8486354;27;20284;-86
2022/06/28 02:26:19;;;;;;;24.40;15.27;;;;;;;;;;8489621;27;20114;-85
2022/06/28 02:30:23;;;;;;;14.80;9.70;;;;;;;;;;8491037;27;20051;-85
2022/06/28 02:43:05;;;;;;;8.73;5.85;;;;;;;;;;8490139;27;20041;-87
2022/06/28 02:47:09;;;;;;;8.75;5.25;;;;;;;;;;8490893;27;20059;-84
2022/06/28 02:51:12;;;;;;;8.23;6.50;;;;;;;;;;8500656;27;20501;-90
2022/06/28 02:55:14;;;;;;;10.10;6.38;;;;;;;;;;8493369;27;20398;-84
2022/06/28 02:59:17;;;;;;;12.13;6.43;;;;;;;;;;8497470;27;20050;-92
2022/06/28 03:03:21;;;;;;;10.90;7.07;;;;;;;;;;8495762;27;20104;-84
2022/06/28 03:07:23;;;;;;;8.15;6.45;;;;;;;;;;8476033;27;20054;-85
2022/06/28 03:11:26;;;;;;;7.88;6.10;;;;;;;;;;8465081;27;20043;-90
2022/06/28 03:15:29;;;;;;;9.90;6.40;;;;;;;;;;8474457;27;20402;-90
2022/06/28 03:19:32;;;;;;;10.65;7.10;;;;;;;;;;8498588;27;20047;-85
2022/06/28 03:23:35;;;;;;;8.40;6.97;;;;;;;;;;8496380;27;20045;-86
2022/06/28 03:27:38;;;;;;;10.70;6.75;;;;;;;;;;8492258;27;20043;-86
2022/06/28 03:31:40;;;;;;;12.07;8.60;;;;;;;;;;8484217;28;20101;-92
2022/06/28 03:35:44;;;;;;;15.02;9.82;;;;;;;;;;8490045;27;20058;-87
2022/06/28 03:39:47;;;;;;;15.48;11.85;;;;;;;;;;8485179;27;20410;-85
2022/06/28 03:43:49;;;;;;;10.70;6.70;;;;;;;;;;8496212;27;20047;-88
2022/06/28 03:47:52;;;;;;;10.43;6.88;;;;;;;;;;8491665;27;20046;-93
2022/06/28 03:51:56;;;;;;;8.48;5.95;;;;;;;;;;8491442;27;20039;-86
2022/06/28 03:55:59;;;;;;;12.77;6.45;;;;;;;;;;8485730;28;20046;-89
2022/06/28 04:00:02;;;;;;;10.07;6.35;;;;;;;;;;8474428;28;20126;-86
2022/06/28 04:04:04;;;;;;;14.45;13.02;;;;;;;;;;8492107;27;20038;-92
2022/06/28 04:08:09;;;;;;;35.80;18.30;;;;;;;;;;8484868;27;20532;-85
2022/06/28 04:12:12;;;;;;;15.07;9.77;;;;;;;;;;8488100;27;20043;-86
2022/06/28 04:16:15;;;;;;;9.88;6.32;;;;;;;;;;8490189;27;20042;-91
2022/06/28 04:20:18;;;;;;;8.13;6.00;;;;;;;;;;8464452;27;20126;-85
2022/06/28 04:24:22;;;;;;;12.68;8.88;;;;;;;;;;8463625;28;20052;-85
2022/06/28 04:28:25;;;;;;;9.90;6.72;;;;;;;;;;8463424;28;20048;-92
2022/06/28 04:32:27;;;;;;;10.68;6.60;;;;;;;;;;8463240;28;20122;-85
2022/06/28 04:36:30;;;;;;;12.77;11.20;;;;;;;;;;8464402;27;20058;-94
2022/06/28 04:40:34;;;;;;;13.45;11.48;;;;;;;;;;8495463;27;20066;-85
2022/06/28 04:44:38;;;;;;;8.75;6.70;;;;;;;;;;8492360;27;20051;-93
2022/06/28 04:48:41;;;;;;;11.80;8.43;;;;;;;;;;8497972;27;20051;-86
2022/06/28 04:52:43;;;;;;;12.52;11.23;;;;;;;;;;8492417;27;20049;-85
2022/06/28 04:56:47;;;;;;;24.63;18.67;;;;;;;;;;8461522;27;20103;-91
2022/06/28 05:00:52;;;;;;;13.63;10.30;;;;;;;;;;8493284;27;20054;-93
2022/06/28 05:04:55;;;;;;;24.15;19.05;;;;;;;;;;8488256;27;20043;-92
2022/06/28 05:09:11;;;;;;;15.77;14.27;;;;;;;;;;8495609;27;20050;-93
2022/06/28 05:13:20;;;;;;;19.23;15.40;;;;;;;;;;8478418;27;20047;-91
2022/06/28 05:17:23;;;;;;;28.33;26.02;;;;;;;;;;8467892;27;20043;-91
2022/06/28 05:21:30;;;;;;;12.93;9.27;;;;;;;;;;8488689;27;20154;-86
2022/06/28 05:25:50;;;;;;;7.07;6.03;;;;;;;;;;8494640;27;20062;-87
2022/06/28 05:30:01;;;;;;;10.63;6.32;;;;;;;;;;8496905;27;20035;-92
2022/06/28 05:34:05;;;;;;;7.90;7.10;;;;;;;;;;8493627;27;20088;-93
2022/06/28 05:38:08;;;;;;;36.42;33.28;;;;;;;;;;8484258;27;20084;-86
2022/06/28 05:42:12;;;;;;;11.60;8.80;;;;;;;;;;8475291;27;20130;-85
2022/06/28 05:46:32;;;;;;;8.35;4.60;;;;;;;;;;8478275;27;20050;-93
2022/06/28 05:50:52;;;;;;;8.70;4.75;;;;;;;;;;8474740;27;20069;-92
2022/06/28 05:55:02;;;;;;;10.73;6.93;;;;;;;;;;8486690;27;20047;-93
2022/06/28 05:59:21;;;;;;;7.03;4.13;;;;;;;;;;8484514;27;20048;-95
2022/06/28 06:03:38;;;;;;;10.75;6.13;;;;;;;;;;8489403;27;20088;-92
2022/06/28 06:08:15;;;;;;;7.40;5.22;;;;;;;;;;8487371;27;20059;-93
2022/06/28 06:12:47;;;;;;;8.90;6.45;;;;;;;;;;8466166;27;20483;-86
2022/06/28 06:16:54;;;;;;;5.63;3.85;;;;;;;;;;8466222;27;20047;-87
2022/06/28 06:21:11;;;;;;;5.47;3.97;;;;;;;;;;8479683;27;20129;-94
2022/06/28 06:25:24;;;;;;;4.95;3.88;;;;;;;;;;8466768;28;20087;-86
2022/06/28 06:29:31;;;;;;;6.07;4.45;;;;;;;;;;8472881;27;20089;-93
2022/06/28 06:33:38;;;;;;;9.35;5.82;;;;;;;;;;8468338;27;20131;-85
2022/06/28 06:37:43;;;;;;;10.23;5.35;;;;;;;;;;8478119;27;20590;-90
2022/06/28 06:41:47;;;;;;;7.43;4.70;;;;;;;;;;8463378;27;20380;-85
2022/06/28 06:45:49;;;;;;;8.70;5.78;;;;;;;;;;8465504;27;20406;-85
2022/06/28 06:49:52;;;;;;;7.85;4.05;;;;;;;;;;8464417;27;20047;-85
2022/06/28 06:53:56;;;;;;;6.70;4.70;;;;;;;;;;8464914;27;20043;-85
2022/06/28 06:57:59;;;;;;;7.53;4.63;;;;;;;;;;8464726;28;20096;-86
2022/06/28 07:02:03;;;;;;;9.52;4.35;;;;;;;;;;8464524;27;20047;-84
2022/06/28 07:06:06;;;;;;;15.73;10.18;;;;;;;;;;8470856;27;20043;-88
2022/06/28 07:10:14;;;;;;;9.90;6.40;;;;;;;;;;8474834;27;20104;-86
2022/06/28 07:14:20;;;;;;;8.77;4.30;;;;;;;;;;8479135;27;20055;-86
2022/06/28 07:18:39;;;;;;;9.77;4.50;;;;;;;;;;8476564;27;20051;-92
2022/06/28 07:23:04;;;;;;;6.32;3.63;;;;;;;;;;8472293;27;20093;-86
2022/06/28 07:27:27;;;;;;;7.10;3.60;;;;;;;;;;8486759;27;20372;-92
2022/06/28 07:31:56;;;;;;;14.45;9.55;;;;;;;;;;8467953;27;20068;-89
2022/06/28 07:36:15;;;;;;;12.27;5.57;;;;;;;;;;8467760;28;20048;-85
2022/06/28 07:40:33;;;;;;;5.28;3.60;;;;;;;;;;8480799;27;20062;-86
2022/06/28 07:44:51;;;;;;;5.65;3.55;;;;;;;;;;8473115;28;20370;-85
2022/06/28 07:49:10;;;;;;;6.97;3.55;;;;;;;;;;8481990;28;20512;-91
2022/06/28 07:53:39;;;;;;;12.82;5.40;;;;;;;;;;8485089;27;20051;-85
2022/06/28 07:57:49;;;;;;;6.65;3.70;;;;;;;;;;8467905;28;20547;-85
2022/06/28 08:02:11;;;;;;;5.75;3.88;;;;;;;;;;8464932;28;20048;-85
2022/06/28 08:06:28;;;;;;;6.20;4.03;;;;;;;;;;8477898;27;20051;-86
2022/06/28 08:10:51;;;;;;;5.95;4.38;;;;;;;;;;8472772;27;20067;-86
2022/06/28 08:15:16;;;;;;;5.90;4.45;;;;;;;;;;8488596;27;20138;-85
2022/06/28 08:19:42;;;;;;;8.77;4.57;;;;;;;;;;8474172;27;20051;-87
2022/06/28 08:24:09;;;;;;;11.02;4.78;;;;;;;;;;8473727;27;20572;-85
2022/06/28 08:28:41;;;;;;;9.00;4.47;;;;;;;;;;8497197;27;20071;-85
2022/06/28 08:33:10;;;;;;;9.57;5.15;;;;;;;;;;8487613;27;20054;-85
2022/06/28 08:37:32;;;;;;;6.57;4.47;;;;;;;;;;8478750;27;20548;-84
2022/06/28 08:41:53;;;;;;;6.03;4.25;;;;;;;;;;8493453;27;20058;-85
2022/06/28 08:45:57;;;;;;;6.40;4.20;;;;;;;;;;8492506;27;20524;-85
2022/06/28 08:50:26;;;;;;;5.32;4.50;;;;;;;;;;8479263;27;20139;-84
2022/06/28 08:54:57;;;;;;;8.18;4.80;;;;;;;;;;8480955;27;20058;-85
2022/06/28 08:59:31;;;;;;;10.30;5.03;;;;;;;;;;8468919;27;20055;-84
2022/06/28 09:03:53;;;;;;;8.05;4.63;;;;;;;;;;8472791;27;20588;-83
2022/06/28 09:08:40;;;;;;;6.90;4.53;;;;;;;;;;8483580;27;20051;-84
2022/06/28 09:13:24;;;;;;;8.95;4.65;;;;;;;;;;8469287;27;20138;-83
2022/06/28 09:17:53;;;;;;;10.37;5.03;;;;;;;;;;8477288;27;20051;-86
2022/06/28 09:22:37;;;;;;;9.40;4.80;;;;;;;;;;8481193;27;20108;-84
2022/06/28 09:27:48;;;;;;;7.78;4.75;;;;;;;;;;8475838;27;20057;-84
2022/06/28 09:32:41;;;;;;;9.32;5.07;;;;;;;;;;8468183;27;20050;-84
2022/06/28 09:37:24;;;;;;;5.80;4.50;;;;;;;;;;8469901;27;20056;-85
2022/06/28 09:42:11;;;;;;;11.38;6.00;;;;;;;;;;8471557;27;20063;-85
2022/06/28 09:56:31;;;;;;;6.28;4.55;;;;;;;;;;8481381;27;20582;-84
2022/06/28 10:00:58;;;;;;;6.50;4.70;;;;;;;;;;8478144;27;20047;-87
2022/06/28 10:05:48;;;;;;;12.57;10.00;;;;;;;;;;8463023;27;20054;-85
2022/06/28 10:10:13;;;;;;;9.73;4.72;;;;;;;;;;8480824;27;20100;-85
2022/06/28 10:18:53;;;;;;;11.35;4.97;;;;;;;;;;8488115;27;20615;-84
2022/06/28 10:23:25;;;;;;;9.60;4.93;;;;;;;;;;8475822;27;20050;-85
2022/06/28 10:27:31;;;;;;;6.27;4.57;;;;;;;;;;8470767;27;20058;-85
2022/06/28 10:31:41;;;;;;;8.07;5.38;;;;;;;;;;8486395;27;20066;-87
2022/06/28 10:35:55;;;;;;;7.40;4.80;;;;;;;;;;8478158;27;20495;-86
2022/06/28 10:40:28;;;;;;;6.68;4.72;;;;;;;;;;8486391;27;20051;-87
2022/06/28 10:44:46;;;;;;;9.32;5.70;;;;;;;;;;8497089;27;20039;-86
2022/06/28 10:49:14;;;;;;;10.48;5.82;;;;;;;;;;8489865;27;20498;-85
2022/06/28 10:53:19;;;;;;;9.00;5.10;;;;;;;;;;8479440;27;20062;-86
2022/06/28 10:57:26;;;;;;;5.95;4.80;;;;;;;;;;8474445;27;20410;-87
2022/06/28 11:02:01;;;;;;;7.15;4.72;;;;;;;;;;8493205;27;20047;-88
2022/06/28 11:06:06;;;;;;;17.27;6.88;;;;;;;;;;8474834;27;20055;-83
2022/06/28 11:10:16;;;;;;;8.20;5.75;;;;;;;;;;8480785;27;20082;-84
2022/06/28 11:14:32;;;;;;;10.68;6.43;;;;;;;;;;8478532;27;20081;-86
2022/06/28 11:18:43;;;;;;;8.98;4.93;;;;;;;;;;8464307;27;20138;-86
2022/06/28 11:23:18;;;;;;;6.65;5.07;;;;;;;;;;8483665;27;20047;-86
2022/06/28 11:27:36;;;;;;;9.15;4.97;;;;;;;;;;8491885;27;20051;-84
2022/06/28 11:31:47;;;;;;;7.30;4.93;;;;;;;;;;8487351;27;20491;-85
2022/06/28 11:36:12;;;;;;;7.38;4.75;;;;;;;;;;8485457;27;20048;-86
2022/06/28 11:40:29;;;;;;;13.43;6.40;;;;;;;;;;8473052;28;20078;-85
2022/06/28 11:44:44;;;;;;;12.32;6.13;;;;;;;;;;8466470;28;20096;-85
2022/06/28 11:49:18;;;;;;;11.23;5.57;;;;;;;;;;8476381;27;20159;-84
2022/06/28 11:53:30;;;;;;;12.18;6.00;;;;;;;;;;8480055;27;20056;-86
2022/06/28 11:57:44;;;;;;;9.30;5.07;;;;;;;;;;8479252;27;20043;-91
2022/06/28 12:02:06;;;;;;;6.95;5.60;;;;;;;;;;8486146;27;20058;-86
2022/06/28 12:06:35;;;;;;;6.95;5.75;;;;;;;;;;8480943;27;20587;-85
2022/06/28 12:10:58;;;;;;;7.03;5.88;;;;;;;;;;8481255;27;20050;-85
2022/06/28 12:15:39;;;;;;;7.35;5.40;;;;;;;;;;8481088;27;20093;-84
2022/06/28 12:19:56;;;;;;;9.60;5.85;;;;;;;;;;8468972;27;20096;-86
2022/06/28 12:24:20;;;;;;;10.80;6.90;;;;;;;;;;8479905;27;20119;-87
2022/06/28 12:29:01;;;;;;;7.68;6.50;;;;;;;;;;8483403;27;20500;-89
2022/06/28 12:33:23;;;;;;;18.65;8.35;;;;;;;;;;8485908;27;20392;-86
2022/06/28 12:37:36;;;;;;;;;;;;;;;;;;8486722;27;20042;-86
2022/06/28 12:41:57;;;;;;;24.35;9.93;;;;;;;;;;8485893;27;20014;-87
2022/06/28 12:46:26;;;;;;;38.15;15.68;;;;;;;;;;8474546;27;20050;-87
2022/06/28 12:50:48;;;;;;;26.05;10.82;;;;;;;;;;8490024;27;20039;-86
2022/06/28 12:55:11;;;;;;;31.10;12.13;;;;;;;;;;8484820;27;20051;-86
2022/06/28 12:59:46;;;;;;;30.88;11.68;;;;;;;;;;8470183;27;20066;-87
2022/06/28 13:04:53;;;;;;;23.98;10.23;;;;;;;;;;8491593;27;20043;-86
2022/06/28 13:09:16;;;;;;;12.30;7.35;;;;;;;;;;8477762;27;20085;-85
2022/06/28 13:13:26;;;;;;;12.18;7.78;;;;;;;;;;8470972;27;20039;-86
2022/06/28 13:27:46;;;;;;;13.02;11.15;;;;;;;;;;8323266;27;5156805;-85
2022/06/28 13:31:49;;;;;;;11.05;9.18;;;;;;;;;;8476283;28;20502;-87
2022/06/28 13:35:52;;;;;;;8.32;6.28;;;;;;;;;;8473796;28;20062;-87
2022/06/28 13:39:58;;;;;;;9.10;6.47;;;;;;;;;;8474892;28;20055;-83
2022/06/28 13:44:04;;;;;;;13.07;7.82;;;;;;;;;;8474965;27;20118;-87
2022/06/28 14:36:49;;;;;;;15.88;9.48;;;;;;;;;;8467138;27;20389;-88
2022/06/28 14:40:55;;;;;;;12.25;9.00;;;;;;;;;;8446458;28;20103;-88
2022/06/28 14:45:39;;;;;;;10.80;7.22;;;;;;;;;;8440298;28;20131;-88
2022/06/28 14:49:47;;;;;;;11.50;6.70;;;;;;;;;;8435167;28;20032;-87
2022/06/28 14:53:53;;;;;;;8.90;5.97;;;;;;;;;;8444436;28;20047;-87
2022/06/28 14:57:57;;;;;;;8.30;6.40;;;;;;;;;;8435991;28;20040;-88
2022/06/28 15:02:04;;;;;;;10.10;5.20;;;;;;;;;;8440252;28;20539;-87
2022/06/28 15:06:11;;;;;;;8.95;5.38;;;;;;;;;;8452381;28;20305;-89
2022/06/28 15:10:35;;;;;;;18.02;5.60;;;;;;;;;;8444087;28;20447;-88
2022/06/28 15:14:43;;;;;;;8.07;5.15;;;;;;;;;;8449232;28;20142;-86
2022/06/28 15:18:59;;;;;;;8.15;4.93;;;;;;;;;;8448215;28;20482;-88
2022/06/28 15:31:56;;;;;;;9.25;5.85;;;;;;;;;;8438765;28;20040;-87
2022/06/28 15:36:19;;;;;;;10.02;6.40;;;;;;;;;;8436193;28;20071;-88
2022/06/28 15:40:33;;;;;;;8.90;5.50;;;;;;;;;;8419543;28;20488;-87
2022/06/28 15:45:04;;;;;;;12.27;6.38;;;;;;;;;;8427796;28;20043;-88
2022/06/28 15:49:19;;;;;;;8.82;6.53;;;;;;;;;;8423436;28;20090;-87
2022/06/28 15:53:29;;;;;;;11.23;6.60;;;;;;;;;;8426692;28;20488;-88
2022/06/28 15:57:46;;;;;;;11.38;7.50;;;;;;;;;;8424151;28;20044;-88
2022/06/28 16:02:02;;;;;;;9.55;7.30;;;;;;;;;;8424274;28;20036;-88
2022/06/28 16:06:10;;;;;;;11.23;8.30;;;;;;;;;;8424606;28;20036;-88
2022/06/28 16:10:18;;;;;;;10.07;7.32;;;;;;;;;;8416474;28;20073;-87
2022/06/28 16:24:58;;;;;;;14.52;11.18;;;;;;;;;;8390314;28;20140;-88
2022/06/28 16:29:04;;;;;;;13.68;10.15;;;;;;;;;;8392554;28;20041;-88
2022/06/28 16:33:11;;;;;;;14.43;9.95;;;;;;;;;;8392363;28;20049;-87
2022/06/28 16:37:18;;;;;;;15.93;10.93;;;;;;;;;;8373016;28;20067;-87
2022/06/28 16:41:28;;;;;;;16.42;10.18;;;;;;;;;;8373817;28;20040;-88
2022/06/28 16:45:33;;;;;;;17.20;12.02;;;;;;;;;;8378570;28;20041;-88
2022/06/28 16:49:36;;;;;;;18.13;11.63;;;;;;;;;;8371491;28;20040;-88
2022/06/28 16:53:40;;;;;;;20.15;12.73;;;;;;;;;;8367577;28;20430;-89
2022/06/28 16:57:46;;;;;;;23.15;14.18;;;;;;;;;;8377952;28;20045;-88
2022/06/28 17:01:49;;;;;;;18.45;13.65;;;;;;;;;;8381056;28;20045;-88
2022/06/28 17:05:53;;;;;;;22.17;14.38;;;;;;;;;;8373226;28;20049;-88
2022/06/28 17:09:59;;;;;;;22.80;15.55;;;;;;;;;;8367880;28;20045;-87
2022/06/28 17:14:04;;;;;;;22.80;15.80;;;;;;;;;;8373123;28;20044;-88
2022/06/28 17:18:08;;;;;;;23.13;16.17;;;;;;;;;;8377282;28;20067;-88
2022/06/28 17:22:21;;;;;;;22.67;15.65;;;;;;;;;;8365429;28;20398;-89
2022/06/28 17:26:29;;;;;;;19.17;14.15;;;;;;;;;;8359893;28;20110;-90
2022/06/28 17:30:40;;;;;;;16.88;12.80;;;;;;;;;;8382152;28;20318;-88
2022/06/28 17:34:46;;;;;;;17.67;14.38;;;;;;;;;;8378771;28;20412;-87
2022/06/28 17:39:01;;;;;;;15.77;12.15;;;;;;;;;;8377546;28;20276;-87
2022/06/28 17:43:05;;;;;;;;;;;;;;;;;;8376505;28;20040;-86
2022/06/28 17:47:11;;;;;;;13.88;9.88;;;;;;;;;;8382706;28;19921;-88
2022/06/28 17:51:15;;;;;;;12.73;10.35;;;;;;;;;;8367199;28;20052;-90
2022/06/28 17:55:35;;;;;;;15.70;10.50;;;;;;;;;;8376407;28;20041;-90
2022/06/28 17:59:57;;;;;;;12.50;9.73;;;;;;;;;;8365161;28;20045;-90
2022/06/28 18:08:45;;;;;;;14.18;9.77;;;;;;;;;;8389688;28;20475;-87
2022/06/28 18:13:06;;;;;;;11.27;9.07;;;;;;;;;;8366080;28;20052;-91
2022/06/28 18:17:25;;;;;;;11.48;9.38;;;;;;;;;;8370417;28;20405;-90
2022/06/28 18:22:06;;;;;;;11.50;8.57;;;;;;;;;;8382868;28;20049;-87
2022/06/28 18:26:18;;;;;;;12.38;10.15;;;;;;;;;;8378693;28;20048;-88
2022/06/28 18:30:31;;;;;;;13.65;9.77;;;;;;;;;;8370460;28;20511;-91
2022/06/28 18:34:47;;;;;;;14.07;10.18;;;;;;;;;;8368319;28;20139;-90
2022/06/28 18:39:19;;;;;;;11.07;8.82;;;;;;;;;;8380653;28;20068;-89
2022/06/28 18:43:35;;;;;;;14.20;10.85;;;;;;;;;;8375097;28;20041;-87
2022/06/28 18:48:00;;;;;;;12.52;10.20;;;;;;;;;;8375809;28;20055;-89
2022/06/28 18:52:07;;;;;;;15.00;10.45;;;;;;;;;;8381376;28;20048;-90
2022/06/28 18:56:18;;;;;;;14.15;9.63;;;;;;;;;;8375094;28;20123;-89
2022/06/28 19:00:32;;;;;;;13.77;11.07;;;;;;;;;;8371157;28;20460;-90
2022/06/28 19:04:40;;;;;;;14.15;10.88;;;;;;;;;;8373676;28;20041;-92
2022/06/28 19:08:48;;;;;;;15.50;11.82;;;;;;;;;;8381015;28;20044;-91
2022/06/28 19:12:56;;;;;;;16.42;13.20;;;;;;;;;;8365845;28;20044;-90
2022/06/28 19:16:59;;;;;;;14.63;11.32;;;;;;;;;;8378468;28;20126;-89
2022/06/28 19:21:07;;;;;;;17.40;12.20;;;;;;;;;;8378745;28;20481;-91
2022/06/28 19:25:19;;;;;;;19.00;14.00;;;;;;;;;;8382471;28;20400;-90
2022/06/28 19:29:33;;;;;;;17.40;13.40;;;;;;;;;;8378952;28;20037;-89
2022/06/28 19:34:08;;;;;;;22.15;14.10;;;;;;;;;;8390088;28;20057;-89
2022/06/28 19:38:24;;;;;;;18.55;15.30;;;;;;;;;;8375952;28;20094;-90
2022/06/28 19:42:33;;;;;;;19.98;15.60;;;;;;;;;;8381786;28;20623;-88
2022/06/28 19:47:07;;;;;;;19.65;14.50;;;;;;;;;;8378981;28;20049;-93
2022/06/28 19:51:29;;;;;;;16.83;13.68;;;;;;;;;;8377640;28;20050;-90
2022/06/28 19:55:36;;;;;;;20.83;16.70;;;;;;;;;;8380602;28;20044;-90
2022/06/28 19:59:39;;;;;;;18.02;13.10;;;;;;;;;;8383806;28;20045;-88
2022/06/28 20:03:44;;;;;;;18.00;14.23;;;;;;;;;;8370859;28;20041;-88
2022/06/28 20:07:48;;;;;;;19.98;15.30;;;;;;;;;;8373615;28;20048;-88
2022/06/28 20:11:53;;;;;;;18.92;15.30;;;;;;;;;;8379161;28;20511;-89
2022/06/28 20:15:55;;;;;;;26.20;19.92;;;;;;;;;;8376025;28;20053;-88
2022/06/28 20:20:00;;;;;;;21.65;16.77;;;;;;;;;;8375594;28;20151;-89
2022/06/28 20:24:04;;;;;;;20.08;15.70;;;;;;;;;;8378570;28;20079;-88
2022/06/28 20:28:10;;;;;;;19.20;14.30;;;;;;;;;;8374502;28;20041;-92
2022/06/28 20:32:13;;;;;;;19.95;14.68;;;;;;;;;;8382757;28;20040;-89
2022/06/28 20:36:19;;;;;;;22.65;15.38;;;;;;;;;;8373768;28;20061;-88
2022/06/28 20:40:23;;;;;;;20.23;14.05;;;;;;;;;;8373999;28;20090;-88
2022/06/28 20:44:27;;;;;;;22.40;15.18;;;;;;;;;;8369994;28;20044;-88
2022/06/28 20:48:30;;;;;;;22.38;15.68;;;;;;;;;;8377360;28;20045;-93
2022/06/28 20:52:36;;;;;;;21.52;15.85;;;;;;;;;;8383984;28;20055;-92
2022/06/28 20:56:40;;;;;;;19.98;14.85;;;;;;;;;;8382924;28;20527;-93
2022/06/28 21:00:43;;;;;;;22.20;16.58;;;;;;;;;;8375453;28;20442;-89
2022/06/28 21:04:46;;;;;;;22.83;17.17;;;;;;;;;;8371396;28;20048;-90
2022/06/28 21:08:51;;;;;;;22.08;17.05;;;;;;;;;;8369539;28;20121;-88
2022/06/28 21:12:54;;;;;;;22.98;17.60;;;;;;;;;;8380232;28;20075;-92
2022/06/28 21:16:58;;;;;;;24.95;17.77;;;;;;;;;;8379347;28;20124;-88
2022/06/28 21:21:02;;;;;;;25.65;18.17;;;;;;;;;;8378253;28;20446;-88
2022/06/28 21:25:10;;;;;;;28.52;18.65;;;;;;;;;;8375468;28;20091;-88
2022/06/28 21:29:13;;;;;;;24.42;17.98;;;;;;;;;;8388863;28;20041;-88
2022/06/28 21:33:17;;;;;;;27.95;17.85;;;;;;;;;;8377780;28;20393;-93
2022/06/28 21:37:20;;;;;;;28.13;18.20;;;;;;;;;;8374184;28;20037;-88
2022/06/28 21:41:39;;;;;;;24.90;16.60;;;;;;;;;;8384294;28;20404;-91
2022/06/28 21:45:42;;;;;;;26.50;17.40;;;;;;;;;;8384453;28;20401;-88
2022/06/28 21:49:45;;;;;;;23.98;16.77;;;;;;;;;;8377885;28;20052;-88
2022/06/28 21:53:48;;;;;;;26.63;16.77;;;;;;;;;;8379174;28;20060;-88
2022/06/28 21:57:52;;;;;;;26.90;17.80;;;;;;;;;;8371598;28;20052;-88
2022/06/28 22:01:55;;;;;;;26.23;18.23;;;;;;;;;;8368415;28;20132;-93
2022/06/28 22:05:58;;;;;;;25.25;16.05;;;;;;;;;;8384242;28;20045;-90
2022/06/28 22:10:01;;;;;;;25.10;15.95;;;;;;;;;;8386709;28;20048;-89
2022/06/28 22:14:08;;;;;;;26.83;17.20;;;;;;;;;;8380582;28;20541;-93
2022/06/28 22:18:10;;;;;;;29.52;17.63;;;;;;;;;;8372286;28;20141;-89
2022/06/28 22:22:13;;;;;;;30.25;16.00;;;;;;;;;;8365831;28;20497;-94
2022/06/28 22:26:16;;;;;;;39.97;19.25;;;;;;;;;;8370236;28;20060;-94
2022/06/28 22:30:36;;;;;;;54.60;19.40;;;;;;;;;;8383688;28;20393;-89
2022/06/28 22:34:39;;;;;;;84.63;20.25;;;;;;;;;;8381055;28;20069;-91
2022/06/28 22:38:42;;;;;;;54.45;19.83;;;;;;;;;;8381004;28;20527;-89
2022/06/28 22:42:44;;;;;;;40.15;19.50;;;;;;;;;;8379458;28;20049;-92
2022/06/28 22:46:49;;;;;;;31.02;18.23;;;;;;;;;;8373588;28;20048;-89
2022/06/28 22:50:52;;;;;;;30.17;18.90;;;;;;;;;;8373578;28;20484;-90
2022/06/28 22:54:55;;;;;;;27.30;17.63;;;;;;;;;;8372278;28;20544;-94
2022/06/28 22:58:57;;;;;;;26.67;17.00;;;;;;;;;;8380998;28;20540;-93
2022/06/28 23:03:02;;;;;;;26.08;16.92;;;;;;;;;;8381218;28;20167;-90
2022/06/28 23:07:05;;;;;;;27.58;18.10;;;;;;;;;;8378525;28;20045;-93
2022/06/28 23:11:08;;;;;;;24.17;17.10;;;;;;;;;;8384942;28;20049;-91
2022/06/28 23:15:11;;;;;;;26.92;18.40;;;;;;;;;;8371828;28;20048;-92
2022/06/28 23:19:15;;;;;;;26.45;17.35;;;;;;;;;;8374144;28;20040;-93
2022/06/28 23:23:18;;;;;;;25.30;17.70;;;;;;;;;;8383936;28;20049;-90
2022/06/28 23:27:21;;;;;;;30.83;18.92;;;;;;;;;;8380114;28;20114;-90
2022/06/28 23:31:24;;;;;;;27.92;18.75;;;;;;;;;;8380496;28;20036;-93
2022/06/28 23:35:29;;;;;;;27.08;18.67;;;;;;;;;;8377174;28;20056;-90
2022/06/28 23:39:32;;;;;;;24.20;17.15;;;;;;;;;;8388631;28;20506;-90
2022/06/28 23:43:35;;;;;;;27.58;18.02;;;;;;;;;;8374859;28;20123;-90
2022/06/28 23:47:37;;;;;;;27.35;17.58;;;;;;;;;;8374662;28;20044;-92
2022/06/28 23:51:44;;;;;;;22.73;15.82;;;;;;;;;;8370007;28;20102;-89
2022/06/28 23:55:46;;;;;;;22.65;16.70;;;;;;;;;;8365177;28;20101;-90
2022/06/28 23:59:49;;;;;;;22.83;16.75;;;;;;;;;;8393459;28;20050;-90
